Mae Sot, Thailand
Current Conditions -  °F | °C
As of 7:00 PM on Thursday 23 Oct 2014 (Local Time) from VTPP Reporting Station
Broken Clouds Broken Clouds  
Wind Chill: 77°   Ceiling: 30000
Heat Index: 78°   Visibility: 5mi
Dew Point: 73°   Wind: 3mph
Humidity: 89%   Direction: NA
Pressure: 29.83"   Gusts: NA
Location:  16.71°N, 98.57°E
Report Text: VTPP 231200Z VRB03KT 8000 FEW020CB FEW025 BKN300 25/23 Q1010
Loading
Personal Weather Stations






























Interactive Weather Map New forecast layout! Learn more

10-Day Weather Forecast

Advertisements
Track Severe Weather on mobile